Time;durP1;ratioP1;P1;durP2;ratioP2;P2;SDS_P1;SDS_P2;PMS_P1;PMS_P2;Temp;Humidity;BMP_temperature;BMP_pressure;BME280_temperature;BME280_humidity;BME280_pressure;Samples;Min_cycle;Max_cycle;Signal;HPM_P1;HPM_P2
2023/08/17 00:01:54;;;;;;;4.23;3.80;;;;;;;26.05;56.97;99408.88;5075043;28;20733;-68
2023/08/17 00:04:22;;;;;;;5.63;3.50;;;;;;;26.03;57.07;99413.03;5075079;28;20270;-68
2023/08/17 00:06:49;;;;;;;3.57;3.37;;;;;;;25.98;57.17;99415.84;5075188;28;20191;-68
2023/08/17 00:09:15;;;;;;;5.87;3.63;;;;;;;25.92;56.76;99417.00;5074369;28;20261;-67
2023/08/17 00:11:42;;;;;;;4.80;4.03;;;;;;;25.89;56.65;99412.16;5074817;28;20195;-68
2023/08/17 00:14:10;;;;;;;4.40;4.00;;;;;;;25.86;57.71;99418.19;5074864;28;20256;-67
2023/08/17 00:16:36;;;;;;;4.30;3.73;;;;;;;25.80;58.08;99413.94;5074659;28;20188;-68
2023/08/17 00:19:03;;;;;;;8.13;3.63;;;;;;;25.84;57.56;99414.97;5074835;28;20337;-68
2023/08/17 00:21:31;;;;;;;4.20;3.87;;;;;;;25.90;57.88;99419.19;5074938;28;20200;-68
2023/08/17 00:23:58;;;;;;;8.13;3.93;;;;;;;25.88;58.00;99416.00;5073508;28;20692;-68
2023/08/17 00:26:25;;;;;;;4.73;3.90;;;;;;;25.94;57.35;99421.06;5074239;28;20651;-68
2023/08/17 00:28:51;;;;;;;4.00;3.67;;;;;;;25.97;56.61;99419.66;5074276;28;20609;-68
2023/08/17 00:31:18;;;;;;;4.03;3.67;;;;;;;25.86;57.43;99421.72;5074773;28;20196;-68
2023/08/17 00:33:45;;;;;;;5.60;4.10;;;;;;;25.88;57.08;99421.44;5074543;28;20196;-68
2023/08/17 00:36:11;;;;;;;6.53;3.93;;;;;;;25.88;57.25;99416.00;5074577;28;20224;-68
2023/08/17 00:38:40;;;;;;;7.50;4.00;;;;;;;25.95;57.42;99421.88;5074637;28;20286;-68
2023/08/17 00:41:06;;;;;;;7.70;3.80;;;;;;;26.01;56.58;99417.97;5073705;28;20217;-68
2023/08/17 00:43:33;;;;;;;9.20;4.53;;;;;;;25.97;56.65;99423.19;5073974;28;20199;-68
2023/08/17 00:46:00;;;;;;;6.50;4.47;;;;;;;25.98;56.71;99419.38;5074133;28;20196;-67
2023/08/17 00:48:28;;;;;;;5.37;4.10;;;;;;;26.01;57.20;99426.13;5073685;28;20204;-68
2023/08/17 00:50:57;;;;;;;4.67;4.17;;;;;;;26.00;55.78;99424.53;5074122;28;20618;-68
2023/08/17 00:53:27;;;;;;;4.70;4.30;;;;;;;25.96;56.34;99428.94;5073912;28;20196;-68
2023/08/17 00:55:55;;;;;;;7.47;4.50;;;;;;;25.85;55.82;99427.47;5074221;28;20211;-68
2023/08/17 00:58:22;;;;;;;5.63;4.07;;;;;;;25.81;56.27;99426.44;5073577;28;20276;-68
2023/08/17 01:00:49;;;;;;;4.97;3.80;;;;;;;25.75;56.39;99433.06;5074149;28;20200;-68
2023/08/17 01:03:17;;;;;;;4.43;4.13;;;;;;;25.79;56.85;99434.06;5074122;28;20253;-68
2023/08/17 01:05:44;;;;;;;4.60;4.20;;;;;;;25.82;57.00;99428.88;5073719;28;20283;-68
2023/08/17 01:08:11;;;;;;;6.40;4.10;;;;;;;25.83;56.78;99430.47;5074008;28;20231;-67
2023/08/17 01:10:45;;;;;;;10.47;4.30;;;;;;;25.85;55.85;99427.47;5073656;28;20196;-67
2023/08/17 01:13:19;;;;;;;5.67;4.27;;;;;;;25.80;55.84;99433.78;5072577;28;20245;-67
2023/08/17 01:15:51;;;;;;;4.77;3.80;;;;;;;25.73;56.91;99427.09;5073736;28;20684;-69
2023/08/17 01:18:23;;;;;;;5.47;4.00;;;;;;;25.65;57.61;99428.59;5073923;28;20191;-68
2023/08/17 01:20:50;;;;;;;4.70;4.17;;;;;;;25.75;57.58;99416.72;5073944;28;20635;-68
2023/08/17 01:23:19;;;;;;;4.03;3.67;;;;;;;25.81;57.06;99421.81;5073817;28;20191;-68
2023/08/17 01:25:45;;;;;;;6.50;3.93;;;;;;;25.84;56.60;99423.91;5073575;28;20195;-68
2023/08/17 01:28:12;;;;;;;3.70;3.47;;;;;;;25.81;56.84;99418.28;5073420;28;20671;-68
2023/08/17 01:30:45;;;;;;;8.43;3.67;;;;;;;25.77;56.24;99420.78;5072936;28;20192;-68
2023/08/17 01:33:19;;;;;;;4.30;3.90;;;;;;;25.70;56.69;99416.81;5074001;28;20188;-68
2023/08/17 01:35:52;;;;;;;9.80;4.30;;;;;;;25.67;57.07;99420.94;5073188;28;20212;-68
2023/08/17 01:38:23;;;;;;;10.47;4.60;;;;;;;25.58;57.35;99419.16;5073491;28;20224;-68
2023/08/17 01:40:53;;;;;;;4.07;3.73;;;;;;;25.46;58.61;99418.81;5073610;28;20280;-68
2023/08/17 01:43:21;;;;;;;8.07;3.33;;;;;;;25.47;58.89;99420.44;5073086;28;20188;-68
2023/08/17 01:45:48;;;;;;;4.37;4.07;;;;;;;25.48;58.51;99422.06;5073117;28;20192;-68
2023/08/17 01:48:15;;;;;;;6.33;3.93;;;;;;;25.41;58.97;99427.03;5073285;28;20253;-68
2023/08/17 01:50:41;;;;;;;4.63;3.70;;;;;;;25.15;59.24;99417.59;5072881;28;20731;-68
2023/08/17 01:53:08;;;;;;;4.73;3.73;;;;;;;24.96;59.65;99421.06;5072901;28;20195;-68
2023/08/17 01:55:36;;;;;;;6.57;3.87;;;;;;;24.72;60.44;99420.31;5072149;28;20643;-68
2023/08/17 01:58:03;;;;;;;8.17;4.17;;;;;;;24.56;62.58;99416.13;5072781;28;20257;-68
2023/08/17 02:00:29;;;;;;;10.50;4.23;;;;;;;24.64;62.10;99417.41;5072923;28;20192;-67
2023/08/17 02:02:56;;;;;;;3.93;3.73;;;;;;;24.71;61.82;99421.38;5082244;28;20192;-68
2023/08/17 02:05:23;;;;;;;4.13;3.73;;;;;;;24.82;61.44;99414.75;5092742;28;20709;-68
2023/08/17 02:07:49;;;;;;;3.97;3.60;;;;;;;24.93;61.48;99415.44;5079306;28;20631;-68
2023/08/17 02:10:16;;;;;;;5.47;4.50;;;;;;;24.93;62.04;99404.56;5072736;28;20214;-67
2023/08/17 02:12:44;;;;;;;5.70;4.33;;;;;;;24.93;61.79;99410.81;5072494;28;20203;-68
2023/08/17 02:15:11;;;;;;;8.73;4.30;;;;;;;25.04;61.67;99415.00;5072590;28;20216;-68
2023/08/17 02:17:37;;;;;;;11.00;4.07;;;;;;;25.06;61.99;99411.19;5072363;28;20207;-68
2023/08/17 02:20:05;;;;;;;4.50;4.13;;;;;;;25.10;61.73;99406.81;5088975;28;20630;-68
2023/08/17 02:22:32;;;;;;;8.43;4.37;;;;;;;25.02;61.52;99395.47;5092564;28;20191;-68
2023/08/17 02:24:59;;;;;;;5.60;4.30;;;;;;;25.18;61.47;99406.16;5092329;28;20245;-69
2023/08/17 02:27:25;;;;;;;4.23;3.93;;;;;;;25.22;61.41;99407.97;5092760;28;20315;-68
2023/08/17 02:29:53;;;;;;;4.47;4.17;;;;;;;25.24;61.72;99404.97;5092299;28;20667;-68
2023/08/17 02:32:20;;;;;;;7.27;4.43;;;;;;;25.32;61.55;99413.31;5092686;28;20191;-68
2023/08/17 02:34:47;;;;;;;5.77;4.27;;;;;;;25.37;61.27;99412.41;5089876;28;20202;-68
2023/08/17 02:37:13;;;;;;;5.60;4.87;;;;;;;25.35;61.72;99409.19;5072245;28;20227;-67
2023/08/17 02:39:40;;;;;;;4.97;3.83;;;;;;;25.41;61.25;99410.72;5071949;28;20245;-68
2023/08/17 02:42:08;;;;;;;6.47;4.30;;;;;;;25.40;61.46;99404.50;5071906;28;20203;-67
2023/08/17 02:44:35;;;;;;;7.80;4.63;;;;;;;25.39;61.49;99404.78;5072042;28;20250;-67
2023/08/17 02:47:03;;;;;;;7.93;4.00;;;;;;;25.28;61.65;99406.03;5072162;28;20192;-67
2023/08/17 02:49:29;;;;;;;7.97;4.77;;;;;;;25.26;61.36;99400.84;5072082;28;20626;-67
2023/08/17 02:51:56;;;;;;;11.47;4.57;;;;;;;25.17;62.10;99404.50;5079655;28;20195;-67
2023/08/17 02:54:23;;;;;;;9.57;5.13;;;;;;;25.06;62.36;99405.75;5092014;28;20721;-68
2023/08/17 02:56:50;;;;;;;6.50;4.67;;;;;;;24.91;62.85;99407.56;5091940;28;20219;-68
2023/08/17 02:59:17;;;;;;;9.23;5.00;;;;;;;24.74;63.83;99407.22;5091401;28;20718;-67
2023/08/17 03:01:44;;;;;;;10.77;4.60;;;;;;;24.54;64.21;99402.00;5071766;28;20199;-68
2023/08/17 03:04:12;;;;;;;6.63;4.60;;;;;;;24.49;64.42;99403.97;5071909;28;20191;-68
2023/08/17 03:06:39;;;;;;;10.73;4.20;;;;;;;24.47;64.71;99401.53;5075034;28;20666;-67
2023/08/17 03:09:06;;;;;;;5.50;4.10;;;;;;;24.48;64.58;99397.75;5090846;28;20244;-67
2023/08/17 03:11:33;;;;;;;11.77;4.47;;;;;;;24.51;64.11;99408.00;5091960;28;20209;-67
2023/08/17 03:14:01;;;;;;;5.73;4.60;;;;;;;24.56;62.68;99410.69;5092010;28;20254;-68
2023/08/17 03:16:27;;;;;;;8.07;4.37;;;;;;;24.56;61.64;99410.69;5091473;28;20673;-68
2023/08/17 03:18:54;;;;;;;5.17;4.23;;;;;;;24.51;61.35;99408.00;5091978;28;20252;-67
2023/08/17 03:21:23;;;;;;;4.63;4.13;;;;;;;24.38;61.56;99414.13;5091823;28;20618;-67
2023/08/17 03:23:50;;;;;;;4.33;3.97;;;;;;;24.26;61.11;99413.69;5085608;28;20199;-67
2023/08/17 03:26:16;;;;;;;12.10;4.17;;;;;;;24.12;61.10;99410.06;5071363;28;20663;-68
2023/08/17 03:28:43;;;;;;;10.23;4.53;;;;;;;24.06;61.31;99405.75;5071384;28;20203;-68
2023/08/17 03:31:10;;;;;;;9.03;4.43;;;;;;;24.06;61.23;99411.19;5071506;28;20248;-68
2023/08/17 03:33:37;;;;;;;9.50;4.47;;;;;;;24.04;60.98;99410.66;5071698;28;20245;-68
2023/08/17 03:36:04;;;;;;;9.87;4.50;;;;;;;24.05;60.72;99415.00;5081589;28;20251;-67
2023/08/17 03:38:32;;;;;;;20.10;4.80;;;;;;;24.00;61.02;99412.31;5091530;28;20296;-68
2023/08/17 03:40:59;;;;;;;7.87;4.07;;;;;;;23.90;61.39;99412.41;5080426;28;20199;-67
2023/08/17 03:43:26;;;;;;;7.83;4.67;;;;;;;23.83;61.50;99422.75;5072093;28;20217;-68
2023/08/17 03:45:53;;;;;;;7.83;4.27;;;;;;;23.80;61.85;99423.31;5071003;28;20210;-68
2023/08/17 03:48:21;;;;;;;8.20;4.13;;;;;;;23.70;61.46;99409.84;5071123;28;20618;-68
2023/08/17 03:50:48;;;;;;;8.27;4.60;;;;;;;23.94;61.53;99424.31;5071363;28;20203;-69
2023/08/17 03:53:14;;;;;;;11.23;4.50;;;;;;;24.08;60.73;99424.47;5071533;28;20190;-68
2023/08/17 03:55:46;;;;;;;11.23;4.90;;;;;;;24.29;60.75;99431.31;5071156;28;20245;-68
2023/08/17 03:58:13;;;;;;;10.20;4.13;;;;;;;24.61;60.88;99424.22;5071031;28;20183;-69
2023/08/17 04:00:40;;;;;;;16.60;4.47;;;;;;;24.99;57.77;99431.38;5071111;28;20741;-68
2023/08/17 04:03:07;;;;;;;8.63;3.73;;;;;;;25.34;57.03;99432.03;5071269;28;20214;-69
2023/08/17 04:05:33;;;;;;;11.47;4.13;;;;;;;25.67;56.36;99420.09;5070746;28;20238;-68
2023/08/17 04:08:02;;;;;;;8.07;4.20;;;;;;;26.20;54.94;99435.88;5086128;28;20583;-68
2023/08/17 04:10:29;;;;;;;8.37;4.30;;;;;;;26.73;53.56;99439.00;5090983;28;20202;-69
2023/08/17 04:12:57;;;;;;;10.20;4.50;;;;;;;27.26;51.46;99445.56;5088532;28;20248;-69
2023/08/17 04:15:24;;;;;;;9.57;4.37;;;;;;;27.79;49.14;99447.34;5090494;28;20257;-69
2023/08/17 04:17:50;;;;;;;11.80;4.13;;;;;;;28.21;46.95;99454.22;5091232;28;20260;-69
2023/08/17 04:20:18;;;;;;;7.93;4.10;;;;;;;28.71;45.31;99450.22;5094029;28;20191;-69
2023/08/17 04:22:45;;;;;;;14.57;4.63;;;;;;;29.27;44.22;99462.00;5095046;28;20576;-70
2023/08/17 04:25:12;;;;;;;6.33;3.70;;;;;;;29.76;41.93;99452.56;5095090;28;20195;-69
2023/08/17 04:27:38;;;;;;;8.93;4.63;;;;;;;30.15;40.40;99454.34;5094735;28;20199;-69
2023/08/17 04:30:08;;;;;;;14.60;4.60;;;;;;;30.55;40.63;99453.78;5079470;28;20745;-68
2023/08/17 04:32:35;;;;;;;4.87;3.80;;;;;;;31.08;38.86;99467.78;5074765;28;20200;-68
2023/08/17 04:35:02;;;;;;;8.90;3.77;;;;;;;31.46;37.96;99463.03;5074720;28;20207;-68
2023/08/17 04:37:28;;;;;;;4.50;3.40;;;;;;;31.72;37.78;99460.91;5074385;28;20297;-69
2023/08/17 04:39:55;;;;;;;6.87;4.23;;;;;;;31.73;37.39;99457.00;5074896;28;20199;-69
2023/08/17 04:42:22;;;;;;;6.07;4.00;;;;;;;31.99;37.28;99460.38;5074405;28;20249;-69
2023/08/17 04:44:48;;;;;;;7.43;4.10;;;;;;;32.24;37.31;99469.50;5076363;28;20668;-69
2023/08/17 04:47:16;;;;;;;8.67;4.03;;;;;;;32.46;36.56;99463.66;5094338;28;20743;-69
2023/08/17 04:49:43;;;;;;;7.40;4.40;;;;;;;32.36;36.96;99470.41;5094784;28;20199;-69
2023/08/17 04:52:10;;;;;;;11.10;4.43;;;;;;;32.54;36.58;99466.31;5094218;28;20225;-68
2023/08/17 04:54:36;;;;;;;6.40;4.07;;;;;;;32.69;36.49;99471.16;5093518;28;20674;-68
2023/08/17 04:57:05;;;;;;;9.87;4.73;;;;;;;32.64;37.06;99468.63;5094528;28;20223;-69
2023/08/17 04:59:32;;;;;;;8.07;4.50;;;;;;;32.89;36.18;99470.28;5094164;28;20569;-68
2023/08/17 05:01:58;;;;;;;6.23;4.13;;;;;;;32.86;36.05;99468.22;5083425;28;20200;-68
2023/08/17 05:04:26;;;;;;;8.23;4.17;;;;;;;32.55;37.08;99467.91;5074040;28;20192;-68
2023/08/17 05:06:53;;;;;;;25.07;6.20;;;;;;;32.72;36.34;99453.97;5079601;28;20202;-68
2023/08/17 05:09:20;;;;;;;6.33;4.00;;;;;;;32.67;36.48;99464.41;5090995;28;20321;-68
2023/08/17 05:11:47;;;;;;;11.07;4.93;;;;;;;32.62;36.77;99450.88;5073685;28;20199;-68
2023/08/17 05:14:13;;;;;;;11.63;5.17;;;;;;;32.66;36.83;99476.56;5073748;28;20203;-68
2023/08/17 05:16:40;;;;;;;8.80;4.60;;;;;;;32.67;36.84;99476.19;5073714;28;20277;-70
2023/08/17 05:19:07;;;;;;;16.47;4.67;;;;;;;32.61;37.30;99466.56;5088914;28;20195;-70
2023/08/17 05:21:35;;;;;;;14.30;5.40;;;;;;;32.72;37.42;99467.72;5093933;28;20202;-70
2023/08/17 05:24:02;;;;;;;9.83;4.83;;;;;;;32.64;37.37;99460.38;5094051;28;20203;-70
2023/08/17 05:26:29;;;;;;;6.53;4.20;;;;;;;32.79;36.82;99467.94;5093827;28;20261;-69
2023/08/17 05:28:55;;;;;;;8.13;4.33;;;;;;;32.84;36.25;99464.22;5093458;28;20196;-69
2023/08/17 05:31:22;;;;;;;7.57;4.20;;;;;;;33.04;36.41;99466.06;5092084;28;20192;-69
2023/08/17 05:33:49;;;;;;;8.97;4.50;;;;;;;33.39;35.87;99469.16;5088653;28;20214;-70
2023/08/17 05:36:15;;;;;;;11.90;4.30;;;;;;;33.83;34.98;99471.72;5073307;28;20219;-63
2023/08/17 05:38:44;;;;;;;6.00;4.37;;;;;;;33.86;34.89;99459.19;5073271;28;20219;-62
2023/08/17 05:41:10;;;;;;;6.33;4.00;;;;;;;34.22;33.92;99470.06;5076891;28;20247;-63
2023/08/17 05:43:37;;;;;;;9.05;4.50;;;;;;;34.24;34.21;99462.22;5089320;28;20561;-63
2023/08/17 05:46:04;;;;;;;13.57;3.70;;;;;;;34.10;34.34;99465.41;5092173;28;20267;-63
2023/08/17 05:48:30;;;;;;;25.80;6.10;;;;;;;34.36;34.17;99457.50;5091303;28;20252;-64
2023/08/17 05:50:57;;;;;;;11.85;4.32;;;;;;;34.49;33.34;99449.97;5089885;28;20191;-63
2023/08/17 05:53:24;;;;;;;15.55;4.18;;;;;;;34.32;34.64;99464.06;5088563;28;20287;-64
2023/08/17 05:55:52;;;;;;;17.95;5.00;;;;;;;34.34;33.48;99465.34;5088592;28;20270;-64
2023/08/17 05:58:19;;;;;;;16.67;4.82;;;;;;;34.51;33.01;99456.72;5090639;28;20191;-64
2023/08/17 06:00:45;;;;;;;11.27;4.22;;;;;;;34.62;32.90;99459.75;5089376;28;20272;-64
2023/08/17 06:03:12;;;;;;;9.40;4.30;;;;;;;34.25;34.15;99447.31;5091748;28;20731;-64
2023/08/17 06:05:40;;;;;;;5.32;4.45;;;;;;;34.20;34.64;99456.63;5088630;28;20295;-63
2023/08/17 06:08:07;;;;;;;11.30;4.65;;;;;;;34.35;33.85;99452.31;5084052;28;20265;-65
2023/08/17 06:10:34;;;;;;;6.82;4.50;;;;;;;34.46;33.72;99458.94;5089386;28;20229;-64
2023/08/17 06:13:02;;;;;;;12.88;3.95;;;;;;;34.68;33.21;99456.38;5089617;28;20248;-64
2023/08/17 06:15:29;;;;;;;10.18;4.40;;;;;;;34.70;33.31;99448.53;5080030;28;20240;-64
2023/08/17 06:17:55;;;;;;;13.10;3.95;;;;;;;34.87;33.83;99452.94;5071259;28;20223;-63
2023/08/17 06:20:22;;;;;;;8.10;3.50;;;;;;;35.01;32.49;99461.56;5071037;28;20253;-63
2023/08/17 06:22:50;;;;;;;14.32;4.00;;;;;;;34.87;33.75;99450.16;5070979;28;20290;-64
2023/08/17 06:25:16;;;;;;;8.32;3.90;;;;;;;34.98;33.15;99445.72;5070252;28;20215;-66
2023/08/17 06:27:44;;;;;;;5.32;3.67;;;;;;;35.17;32.51;99451.28;5075690;28;20645;-64
2023/08/17 06:30:13;;;;;;;8.00;3.72;;;;;;;35.03;33.51;99450.97;5089208;28;20277;-64
2023/08/17 06:32:39;;;;;;;6.13;3.60;;;;;;;34.88;33.63;99449.81;5069516;28;20192;-63
2023/08/17 06:35:07;;;;;;;5.18;3.35;;;;;;;34.95;32.75;99458.25;5075346;28;20191;-65
2023/08/17 06:37:34;;;;;;;9.13;3.70;;;;;;;34.99;32.44;99459.16;5090927;28;20239;-66
2023/08/17 06:40:01;;;;;;;5.57;3.70;;;;;;;35.09;32.87;99455.03;5085471;28;20392;-65
2023/08/17 06:42:28;;;;;;;3.80;3.15;;;;;;;35.15;32.73;99459.16;5090122;28;20199;-64
2023/08/17 06:44:55;;;;;;;17.25;4.03;;;;;;;35.11;32.70;99463.78;5090837;28;20263;-64
2023/08/17 06:47:23;;;;;;;6.72;3.67;;;;;;;35.18;33.26;99461.97;5090662;28;20252;-65
2023/08/17 06:49:50;;;;;;;6.07;3.33;;;;;;;35.38;32.32;99449.84;5088940;28;20252;-64
2023/08/17 06:52:16;;;;;;;7.90;3.50;;;;;;;35.46;32.26;99453.56;5085295;28;20732;-64
2023/08/17 06:54:43;;;;;;;7.85;3.25;;;;;;;35.50;31.96;99454.44;5076817;28;20684;-64
2023/08/17 06:57:10;;;;;;;21.38;4.65;;;;;;;35.62;31.60;99457.09;5074203;28;20219;-64
2023/08/17 06:59:37;;;;;;;9.43;3.72;;;;;;;35.33;32.25;99446.56;5084995;28;20240;-64
2023/08/17 07:02:03;;;;;;;5.68;3.80;;;;;;;35.42;32.62;99447.97;5085455;28;20732;-63
2023/08/17 07:04:31;;;;;;;5.18;3.17;;;;;;;35.53;31.38;99449.00;5077049;28;20245;-63
2023/08/17 07:06:58;;;;;;;3.72;3.25;;;;;;;35.50;31.73;99448.91;5077546;28;20726;-63
2023/08/17 07:09:25;;;;;;;4.88;3.08;;;;;;;35.33;31.39;99430.78;5070331;28;20200;-64
2023/08/17 07:11:51;;;;;;;21.90;3.63;;;;;;;35.50;31.38;99421.28;5070847;28;20199;-63
2023/08/17 07:14:18;;;;;;;7.03;3.20;;;;;;;35.78;31.76;99449.56;5082236;28;20214;-65
2023/08/17 07:16:45;;;;;;;3.55;3.25;;;;;;;35.88;30.98;99449.00;5077300;28;20215;-66
2023/08/17 07:19:13;;;;;;;3.80;2.65;;;;;;;35.93;30.66;99451.47;5087429;28;20187;-64
2023/08/17 07:21:41;;;;;;;5.13;3.05;;;;;;;35.72;30.60;99446.25;5070107;28;20192;-63
2023/08/17 07:24:15;;;;;;;5.30;2.53;;;;;;;35.88;30.04;99437.94;5081716;28;20252;-64
2023/08/17 07:26:42;;;;;;;3.63;2.72;;;;;;;35.79;30.49;99442.84;5086655;28;20775;-63
2023/08/17 07:29:09;;;;;;;5.28;3.10;;;;;;;35.71;30.65;99438.31;5082555;28;20241;-64
2023/08/17 07:31:37;;;;;;;4.75;4.07;;;;;;;36.03;30.39;99445.34;5084903;28;20195;-65
2023/08/17 07:34:06;;;;;;;5.50;2.78;;;;;;;36.26;30.43;99440.69;5085757;28;20198;-64
2023/08/17 07:36:33;;;;;;;3.55;2.63;;;;;;;36.38;29.46;99451.59;5071678;28;20218;-65
2023/08/17 07:39:01;;;;;;;2.95;2.80;;;;;;;36.44;30.09;99455.63;5068932;28;20231;-64
2023/08/17 07:41:30;;;;;;;14.07;4.47;;;;;;;36.43;29.36;99454.84;5069164;28;20195;-65
2023/08/17 07:43:57;;;;;;;3.38;2.90;;;;;;;36.22;29.72;99453.66;5070545;28;20196;-63
2023/08/17 07:46:23;;;;;;;4.97;2.97;;;;;;;36.12;30.29;99445.91;5072205;28;20192;-64
2023/08/17 07:48:50;;;;;;;9.95;3.17;;;;;;;36.15;30.09;99448.75;5070874;28;20192;-64
2023/08/17 07:51:17;;;;;;;3.92;2.85;;;;;;;36.33;30.59;99441.59;5071066;28;20626;-64
2023/08/17 07:53:44;;;;;;;3.58;2.92;;;;;;;36.49;29.33;99442.28;5072948;28;20245;-64
2023/08/17 07:56:12;;;;;;;4.55;2.47;;;;;;;36.39;28.14;99442.91;5095355;28;20287;-63
2023/08/17 07:58:38;;;;;;;3.63;2.60;;;;;;;36.46;27.98;99442.25;5093181;28;20219;-62
2023/08/17 08:01:05;;;;;;;5.03;2.40;;;;;;;36.69;27.61;99440.28;5079122;28;20203;-73
2023/08/17 08:03:32;;;;;;;5.45;2.97;;;;;;;36.95;27.73;99440.34;5080487;28;20345;-71
2023/08/17 08:05:59;;;;;;;9.43;3.40;;;;;;;37.17;28.70;99442.28;5084809;28;20274;-73
2023/08/17 08:08:25;;;;;;;5.18;2.92;;;;;;;37.32;28.33;99435.78;5085373;28;20622;-71
2023/08/17 08:10:54;;;;;;;6.47;3.20;;;;;;;37.46;28.11;99440.72;5079429;28;20260;-72
2023/08/17 08:13:22;;;;;;;3.38;2.78;;;;;;;37.42;27.72;99432.38;5076820;28;20290;-72
2023/08/17 08:15:49;;;;;;;3.05;2.50;;;;;;;37.58;27.58;99437.72;5073442;28;20205;-68
2023/08/17 08:18:15;;;;;;;7.05;2.78;;;;;;;37.64;27.50;99436.25;5092472;28;20759;-69
2023/08/17 08:20:42;;;;;;;6.63;2.90;;;;;;;37.57;27.47;99436.13;5083236;28;20187;-68
2023/08/17 08:23:09;;;;;;;3.50;2.70;;;;;;;37.54;26.48;99434.09;5078881;28;20846;-68
2023/08/17 08:25:35;;;;;;;5.32;3.28;;;;;;;37.29;27.18;99431.00;5069344;28;20187;-72
2023/08/17 08:28:03;;;;;;;43.78;4.82;;;;;;;36.63;27.45;99433.44;5070523;28;20204;-69
2023/08/17 08:30:31;;;;;;;3.80;2.63;;;;;;;36.62;27.61;99424.31;5076391;28;20194;-69
2023/08/17 08:32:58;;;;;;;3.97;2.58;;;;;;;36.84;27.67;99425.53;5079584;28;20279;-67
2023/08/17 08:35:25;;;;;;;2.65;2.42;;;;;;;37.10;27.40;99425.53;5081353;28;20198;-71
2023/08/17 08:37:52;;;;;;;3.47;2.42;;;;;;;37.32;27.13;99423.91;5079322;28;20695;-69
2023/08/17 08:40:20;;;;;;;5.70;2.60;;;;;;;37.39;26.40;99430.34;5081306;28;20245;-67
2023/08/17 08:42:46;;;;;;;2.38;2.08;;;;;;;37.36;26.82;99431.09;5081003;28;20198;-65
2023/08/17 08:45:13;;;;;;;9.32;2.28;;;;;;;37.06;27.75;99411.63;5080309;28;20574;-68
2023/08/17 08:47:42;;;;;;;7.80;2.40;;;;;;;37.04;28.09;99418.72;5080307;28;20195;-67
2023/08/17 08:50:14;;;;;;;9.43;2.13;;;;;;;36.93;27.69;99412.22;5078236;28;20203;-67
2023/08/17 08:52:45;;;;;;;4.85;2.28;;;;;;;37.30;27.57;99398.53;5077305;28;20257;-67
2023/08/17 08:55:16;;;;;;;2.83;2.47;;;;;;;37.23;27.36;99410.31;5071968;28;20245;-66
2023/08/17 08:57:44;;;;;;;2.50;2.10;;;;;;;36.85;27.93;99399.41;5090456;28;20235;-67
2023/08/17 09:00:12;;;;;;;8.90;2.47;;;;;;;36.90;28.10;99396.31;5079957;28;20864;-66
2023/08/17 09:02:40;;;;;;;5.57;2.35;;;;;;;37.23;27.33;99399.22;5077984;28;20639;-68
2023/08/17 09:05:11;;;;;;;6.93;2.45;;;;;;;37.44;27.50;99399.53;5081529;28;20282;-69
2023/08/17 09:07:38;;;;;;;19.80;3.20;;;;;;;37.54;26.86;99393.31;5074420;28;20663;-67
2023/08/17 09:10:06;;;;;;;2.58;2.28;;;;;;;37.69;26.31;99399.88;5086961;28;20345;-68
2023/08/17 09:12:33;;;;;;;2.05;1.95;;;;;;;37.91;26.52;99385.88;5073422;28;20211;-70
2023/08/17 09:14:59;;;;;;;3.30;2.47;;;;;;;38.00;26.30;99386.34;5073437;28;20188;-71
2023/08/17 09:17:27;;;;;;;5.22;2.28;;;;;;;38.10;26.11;99380.16;5080487;28;20223;-67
2023/08/17 09:19:55;;;;;;;3.28;2.30;;;;;;;37.94;25.98;99362.94;5078289;28;20196;-68
2023/08/17 09:22:26;;;;;;;4.88;2.25;;;;;;;38.03;26.30;99382.88;5072642;28;20188;-68
2023/08/17 09:24:52;;;;;;;5.10;2.78;;;;;;;38.04;26.42;99384.44;5090284;28;20790;-68
2023/08/17 09:27:19;;;;;;;3.05;2.20;;;;;;;37.75;26.08;99365.88;5076499;28;20261;-69
2023/08/17 09:29:46;;;;;;;7.05;3.00;;;;;;;38.01;26.14;99392.72;5088890;28;20671;-69
2023/08/17 09:32:15;;;;;;;3.17;2.10;;;;;;;38.10;25.56;99387.69;5090828;28;20223;-68
2023/08/17 09:34:42;;;;;;;4.18;2.47;;;;;;;38.00;26.05;99378.03;5091125;28;20655;-68
2023/08/17 09:37:12;;;;;;;4.90;2.05;;;;;;;37.99;26.11;99387.53;5091151;28;20632;-70
2023/08/17 09:39:39;;;;;;;2.97;2.65;;;;;;;38.14;26.39;99385.75;5088902;28;20199;-68
2023/08/17 09:42:06;;;;;;;3.53;2.53;;;;;;;38.28;25.46;99378.34;5072100;28;20196;-70
2023/08/17 09:44:34;;;;;;;6.90;1.80;;;;;;;38.24;26.00;99373.94;5087806;28;20214;-70
2023/08/17 09:47:02;;;;;;;4.05;2.60;;;;;;;37.82;26.56;99370.69;5075544;28;20207;-69
2023/08/17 09:49:32;;;;;;;7.40;2.47;;;;;;;37.77;26.80;99380.19;5072198;28;20227;-69
2023/08/17 09:52:00;;;;;;;2.58;2.40;;;;;;;37.83;25.72;99377.84;5071851;28;20180;-70
2023/08/17 09:54:31;;;;;;;3.47;2.40;;;;;;;37.97;26.09;99366.91;5072639;28;20697;-67
2023/08/17 09:56:58;;;;;;;3.65;2.28;;;;;;;38.08;25.92;99371.41;5086693;28;20196;-68
2023/08/17 09:59:25;;;;;;;3.90;2.28;;;;;;;37.95;26.15;99358.97;5089762;28;20215;-67
2023/08/17 10:01:52;;;;;;;3.67;2.17;;;;;;;38.04;25.58;99356.69;5091228;28;20195;-67
2023/08/17 10:04:22;;;;;;;4.60;2.45;;;;;;;38.00;26.18;99350.28;5084645;28;20257;-67
2023/08/17 10:06:52;;;;;;;7.20;2.70;;;;;;;37.88;25.57;99349.78;5075752;28;20673;-66
2023/08/17 10:09:24;;;;;;;5.32;2.50;;;;;;;37.89;25.93;99346.63;5084276;28;20242;-68
2023/08/17 10:11:55;;;;;;;3.47;2.33;;;;;;;37.42;27.12;99346.44;5072969;28;20195;-65
2023/08/17 10:14:26;;;;;;;2.95;2.30;;;;;;;37.25;26.46;99349.78;5078292;28;20196;-68
2023/08/17 10:17:01;;;;;;;6.38;2.75;;;;;;;37.12;27.36;99346.38;5083670;28;20219;-67
2023/08/17 10:19:38;;;;;;;3.22;2.28;;;;;;;37.22;26.81;99331.13;5073137;28;20208;-65
2023/08/17 10:22:12;;;;;;;2.88;2.33;;;;;;;37.13;26.47;99344.44;5084071;28;20246;-66
2023/08/17 10:24:40;;;;;;;2.78;2.45;;;;;;;37.01;26.89;99334.38;5071189;28;20490;-65
2023/08/17 10:27:10;;;;;;;3.45;2.05;;;;;;;36.86;27.28;99335.34;5068249;28;20199;-68
2023/08/17 10:29:39;;;;;;;3.85;2.03;;;;;;;37.16;26.66;99327.09;5075474;28;20645;-65
2023/08/17 10:32:06;;;;;;;3.05;2.17;;;;;;;36.88;26.37;99323.91;5090633;28;20203;-67
2023/08/17 10:34:35;;;;;;;2.28;2.05;;;;;;;37.20;25.99;99327.94;5089810;28;20734;-66
2023/08/17 10:37:03;;;;;;;2.50;2.25;;;;;;;37.37;25.61;99326.56;5084631;28;20203;-67
2023/08/17 10:39:30;;;;;;;4.35;2.25;;;;;;;37.49;25.38;99329.06;5089600;28;20288;-66
2023/08/17 10:41:58;;;;;;;6.32;2.53;;;;;;;37.21;26.73;99315.66;5086997;28;20191;-66
2023/08/17 10:44:48;;;;;;;3.20;2.08;;;;;;;37.04;26.74;99324.53;5075626;28;20194;-66
2023/08/17 10:47:23;;;;;;;4.55;2.75;;;;;;;36.50;27.34;99304.69;5070803;28;20622;-66
2023/08/17 10:49:50;;;;;;;3.90;2.28;;;;;;;36.35;26.51;99313.94;5071038;28;20199;-65
2023/08/17 10:52:26;;;;;;;4.25;2.30;;;;;;;36.47;26.27;99322.84;5072052;28;20192;-64
2023/08/17 10:54:54;;;;;;;4.38;2.45;;;;;;;36.58;26.36;99301.66;5080338;28;20226;-64
2023/08/17 10:57:34;;;;;;;3.70;2.20;;;;;;;36.67;26.65;99304.94;5079907;28;20194;-66
2023/08/17 11:00:10;;;;;;;3.97;2.47;;;;;;;36.32;26.97;99309.94;5071427;28;20580;-65
2023/08/17 11:02:38;;;;;;;3.92;2.22;;;;;;;35.91;26.79;99312.72;5075317;28;20194;-65
2023/08/17 11:05:05;;;;;;;2.63;2.40;;;;;;;35.71;27.38;99300.88;5070785;28;20191;-63
2023/08/17 11:07:40;;;;;;;6.45;2.13;;;;;;;35.92;27.35;99300.50;5079450;28;20248;-63
2023/08/17 11:10:12;;;;;;;4.38;2.10;;;;;;;36.17;26.54;99287.94;5077882;28;20260;-65
2023/08/17 11:12:41;;;;;;;2.42;2.10;;;;;;;36.39;26.39;99287.13;5071574;28;20188;-65
2023/08/17 11:15:10;;;;;;;6.93;2.38;;;;;;;36.65;26.53;99278.81;5078752;28;20192;-66
2023/08/17 11:17:37;;;;;;;5.13;2.55;;;;;;;36.39;26.74;99303.72;5077181;28;20340;-65
2023/08/17 11:20:04;;;;;;;3.72;2.10;;;;;;;36.20;26.31;99287.16;5077641;28;20188;-65
2023/08/17 11:22:32;;;;;;;2.50;2.30;;;;;;;36.31;26.51;99285.41;5078415;28;20281;-65
2023/08/17 11:24:59;;;;;;;4.18;3.72;;;;;;;36.43;26.22;99271.38;5078322;28;20265;-65
2023/08/17 11:27:26;;;;;;;2.10;2.00;;;;;;;36.58;26.83;99273.97;5078228;28;20199;-66
2023/08/17 11:29:53;;;;;;;6.20;2.60;;;;;;;36.41;27.15;99276.47;5080468;28;20274;-65
2023/08/17 11:32:21;;;;;;;2.85;2.20;;;;;;;36.56;26.50;99265.25;5079281;28;20187;-65
2023/08/17 11:34:48;;;;;;;5.22;2.03;;;;;;;36.69;25.82;99257.53;5081877;28;20194;-64